Terminal Aerodrome Forecast
Issued by NWS Duluth, MN

Home | Current Version | Previous Version | Text Only | Print | Product List | Glossary On
Versions: 1 2 3 4 5 6 7 8 9 10 11 12 13 14 15 16 17 18 19 20 21 22 23 24 25 26
000
FTUS43 KDLH 010300 AAB
TAFINL
TAF AMD
KINL 010301Z 0103/0124 VRB05KT P6SM -SN SCT060 BKN100
      TEMPO 0103/0104 2SM -SN BR BKN014 OVC022
     FM010900 25006KT P6SM SCT030 BKN050
     FM011600 27010KT P6SM BKN035=

USA.gov is the U.S. government's official web portal to all federal, state and local government web resources and services.